createdAt,value
2023-03-05T00:01:14.141Z,67.88
2023-03-05T00:03:40.794Z,68.67
2023-03-05T00:06:07.524Z,69.20
2023-03-05T00:08:34.696Z,69.28
2023-03-05T00:11:04.523Z,69.03
2023-03-05T00:13:31.301Z,68.33
2023-03-05T00:15:57.972Z,68.31
2023-03-05T00:18:24.580Z,69.02
2023-03-05T00:20:51.228Z,68.77
2023-03-05T00:23:17.755Z,68.85
2023-03-05T00:25:45.895Z,68.21
2023-03-05T00:28:13.073Z,68.76
2023-03-05T00:30:39.637Z,68.66
2023-03-05T00:33:06.284Z,68.39
2023-03-05T00:35:39.620Z,68.66
2023-03-05T00:38:06.064Z,69.43
2023-03-05T00:40:36.711Z,69.58
2023-03-05T00:43:03.703Z,69.54
2023-03-05T00:45:30.470Z,70.29
2023-03-05T00:47:57.620Z,70.45
2023-03-05T00:50:26.838Z,70.62
2023-03-05T00:52:54.037Z,71.13
2023-03-05T00:55:20.831Z,71.51
2023-03-05T00:57:47.409Z,71.05
2023-03-05T01:00:15.200Z,71.26
2023-03-05T01:02:42.142Z,71.57
2023-03-05T01:05:12.657Z,71.88
2023-03-05T01:07:39.665Z,72.39
2023-03-05T01:10:07.104Z,72.09
2023-03-05T01:12:33.658Z,71.46
2023-03-05T01:15:00.485Z,71.64
2023-03-05T01:17:27.004Z,71.69
2023-03-05T01:19:53.480Z,71.40
2023-03-05T01:22:19.930Z,70.99
2023-03-05T01:24:46.460Z,71.51
2023-03-05T01:27:12.912Z,71.23
2023-03-05T01:29:39.501Z,71.90
2023-03-05T01:32:06.059Z,71.43
2023-03-05T01:34:33.131Z,71.55
2023-03-05T01:36:59.547Z,71.23
2023-03-05T01:39:26.008Z,71.17
2023-03-05T01:41:52.549Z,70.98
2023-03-05T01:44:25.074Z,71.37
2023-03-05T01:46:52.008Z,71.81
2023-03-05T01:49:28.507Z,71.85
2023-03-05T01:52:18.050Z,71.70
2023-03-05T01:54:59.041Z,71.87
2023-03-05T01:57:33.579Z,72.21
2023-03-05T02:00:05.790Z,72.39
2023-03-05T02:02:41.329Z,72.90
2023-03-05T02:05:11.544Z,72.71
2023-03-05T02:07:40.100Z,72.12
2023-03-05T02:10:35.059Z,72.51
2023-03-05T02:13:05.440Z,72.79
2023-03-05T02:15:33.351Z,72.26
2023-03-05T02:18:01.272Z,72.54
2023-03-05T02:20:30.962Z,72.48
2023-03-05T02:22:57.838Z,73.02
2023-03-05T02:25:29.350Z,73.00
2023-03-05T02:28:01.895Z,72.91
2023-03-05T02:30:28.682Z,72.65
2023-03-05T02:32:55.196Z,72.42
2023-03-05T02:35:22.047Z,72.50
2023-03-05T02:37:48.549Z,72.61
2023-03-05T02:40:15.273Z,72.53
2023-03-05T02:42:42.966Z,72.60
2023-03-05T02:45:14.184Z,72.18
2023-03-05T02:47:41.307Z,72.29
2023-03-05T02:50:10.989Z,72.41
2023-03-05T02:52:38.616Z,72.40
2023-03-05T02:55:10.151Z,72.52
2023-03-05T02:57:37.945Z,72.86
2023-03-05T03:00:06.101Z,72.70
2023-03-05T03:02:33.996Z,72.40
2023-03-05T03:05:00.623Z,72.74
2023-03-05T03:07:27.129Z,72.88
2023-03-05T03:09:53.615Z,72.60
2023-03-05T03:12:20.086Z,72.99
2023-03-05T03:14:46.645Z,73.27
2023-03-05T03:17:15.573Z,73.47
2023-03-05T03:19:44.230Z,73.11
2023-03-05T03:22:13.300Z,72.65
2023-03-05T03:24:41.955Z,72.82
2023-03-05T03:27:08.973Z,73.06
2023-03-05T03:29:36.214Z,73.24
2023-03-05T03:32:03.300Z,73.06
2023-03-05T03:34:30.151Z,73.78
2023-03-05T03:36:56.618Z,74.02
2023-03-05T03:39:23.763Z,73.47
2023-03-05T03:41:52.337Z,73.38
2023-03-05T03:44:20.940Z,73.36
2023-03-05T03:46:48.825Z,73.37
2023-03-05T03:49:18.078Z,73.38
2023-03-05T03:51:44.661Z,73.07
2023-03-05T03:54:11.109Z,73.02
2023-03-05T03:56:37.596Z,73.00
2023-03-05T03:59:04.073Z,72.75
2023-03-05T04:01:30.555Z,73.04
2023-03-05T04:03:57.028Z,73.38
2023-03-05T04:06:23.679Z,73.12
2023-03-05T04:08:50.477Z,73.32
2023-03-05T04:11:20.271Z,73.43
2023-03-05T04:13:47.761Z,73.77
2023-03-05T04:16:15.635Z,73.77
2023-03-05T04:18:42.878Z,73.31
2023-03-05T04:21:09.556Z,73.49
2023-03-05T04:23:36.080Z,73.24
2023-03-05T04:26:02.577Z,73.37
2023-03-05T04:28:29.205Z,73.51
2023-03-05T04:30:55.646Z,74.04
2023-03-05T04:33:22.118Z,73.14
2023-03-05T04:35:48.805Z,73.45
2023-03-05T04:38:15.310Z,73.68
2023-03-05T04:40:41.929Z,73.37
2023-03-05T04:43:08.542Z,73.67
2023-03-05T04:45:35.022Z,73.76
2023-03-05T04:48:01.464Z,73.53
2023-03-05T04:50:27.917Z,73.70
2023-03-05T04:52:54.558Z,73.95
2023-03-05T04:55:21.051Z,73.88
2023-03-05T04:57:48.066Z,74.60
2023-03-05T05:00:16.791Z,73.74
2023-03-05T05:02:45.783Z,73.82
2023-03-05T05:05:15.415Z,74.25
2023-03-05T05:07:41.864Z,73.89
2023-03-05T05:10:09.970Z,74.20
2023-03-05T05:12:37.327Z,74.34
2023-03-05T05:15:06.496Z,74.48
2023-03-05T05:17:33.953Z,74.09
2023-03-05T05:20:02.523Z,74.09
2023-03-05T05:22:29.325Z,73.99
2023-03-05T05:24:56.475Z,74.06
2023-03-05T05:27:22.962Z,73.94
2023-03-05T05:29:53.008Z,74.05
2023-03-05T05:32:21.248Z,74.26
2023-03-05T05:34:48.483Z,74.20
2023-03-05T05:37:15.341Z,74.36
2023-03-05T05:39:41.797Z,74.03
2023-03-05T05:42:08.265Z,74.50
2023-03-05T05:44:34.914Z,74.76
2023-03-05T05:47:01.736Z,73.94
2023-03-05T05:49:28.546Z,74.61
2023-03-05T05:51:55.029Z,74.36
2023-03-05T05:54:22.542Z,74.11
2023-03-05T05:56:49.018Z,74.50
2023-03-05T05:59:15.424Z,74.79
2023-03-05T06:01:41.964Z,75.00
2023-03-05T06:04:08.427Z,74.93
2023-03-05T06:06:35.020Z,74.45
2023-03-05T06:09:01.543Z,74.54
2023-03-05T06:11:28.200Z,74.21
2023-03-05T06:13:54.749Z,74.79
2023-03-05T06:16:24.052Z,74.67
2023-03-05T06:18:51.640Z,74.70
2023-03-05T06:21:20.328Z,74.14
2023-03-05T06:23:48.180Z,74.61
2023-03-05T06:26:17.466Z,74.26
2023-03-05T06:28:43.986Z,74.32
2023-03-05T06:31:20.064Z,74.23
2023-03-05T06:33:46.687Z,75.24
2023-03-05T06:36:15.918Z,75.93
2023-03-05T06:38:43.164Z,75.72
2023-03-05T06:41:12.864Z,75.82
2023-03-05T06:43:41.850Z,74.69
2023-03-05T06:46:29.927Z,75.38
2023-03-05T06:48:58.192Z,75.25
2023-03-05T06:51:30.830Z,76.68
2023-03-05T06:54:01.678Z,76.68
2023-03-05T06:56:28.283Z,76.54
2023-03-05T06:58:54.899Z,75.80
2023-03-05T07:01:21.602Z,75.89
2023-03-05T07:03:52.546Z,76.16
2023-03-05T07:06:19.915Z,76.64
2023-03-05T07:08:46.404Z,76.80
2023-03-05T07:11:15.631Z,77.13
2023-03-05T07:13:43.234Z,76.72
2023-03-05T07:16:13.342Z,75.90
2023-03-05T07:18:39.833Z,75.74
2023-03-05T07:21:09.024Z,75.61
2023-03-05T07:23:36.018Z,75.69
2023-03-05T07:26:04.691Z,75.33
2023-03-05T07:28:32.197Z,75.20
2023-03-05T07:31:03.934Z,74.89
2023-03-05T07:33:30.708Z,74.36
2023-03-05T07:35:57.215Z,74.11
2023-03-05T07:38:23.777Z,73.82
2023-03-05T07:40:50.792Z,73.29
2023-03-05T07:43:17.502Z,73.39
2023-03-05T07:45:46.086Z,73.15
2023-03-05T07:48:15.887Z,73.53
2023-03-05T07:50:42.580Z,72.79
2023-03-05T07:53:09.209Z,72.33
2023-03-05T07:55:41.496Z,71.93
2023-03-05T07:58:07.896Z,71.01
2023-03-05T08:00:34.301Z,70.99
2023-03-05T08:03:00.719Z,71.48
2023-03-05T08:05:27.152Z,70.91
2023-03-05T08:07:53.686Z,75.48
2023-03-05T08:10:20.287Z,86.00
2023-03-05T08:12:46.885Z,68.25
2023-03-05T08:15:13.332Z,67.56
2023-03-05T08:17:39.994Z,66.42
2023-03-05T08:20:10.817Z,66.54
2023-03-05T08:22:38.436Z,67.07
2023-03-05T08:25:06.196Z,68.11
2023-03-05T08:27:33.057Z,67.51
2023-03-05T08:30:02.316Z,67.16
2023-03-05T08:32:29.181Z,68.02
2023-03-05T08:34:58.467Z,66.68
2023-03-05T08:37:25.255Z,67.33
2023-03-05T08:39:51.645Z,66.55
2023-03-05T08:42:18.170Z,66.12
2023-03-05T08:44:44.676Z,65.70
2023-03-05T08:47:11.124Z,64.88
2023-03-05T08:49:37.562Z,63.18
2023-03-05T08:52:04.142Z,62.76
2023-03-05T08:54:30.645Z,63.02
2023-03-05T08:56:57.090Z,63.51
2023-03-05T08:59:23.543Z,62.58
2023-03-05T09:01:50.566Z,62.74
2023-03-05T09:04:17.142Z,63.20
2023-03-05T09:06:43.552Z,61.97
2023-03-05T09:09:10.178Z,62.28
2023-03-05T09:11:37.272Z,61.38
2023-03-05T09:14:04.916Z,61.25
2023-03-05T09:16:32.253Z,61.15
2023-03-05T09:18:59.889Z,61.10
2023-03-05T09:21:26.397Z,61.35
2023-03-05T09:23:52.862Z,61.30
2023-03-05T09:26:20.098Z,60.17
2023-03-05T09:28:47.715Z,60.10
2023-03-05T09:31:14.534Z,60.39
2023-03-05T09:33:41.011Z,59.51
2023-03-05T09:36:23.754Z,58.85
2023-03-05T09:38:50.810Z,58.88
2023-03-05T09:41:33.985Z,58.99
2023-03-05T09:44:27.385Z,58.01
2023-03-05T09:47:15.955Z,57.33
2023-03-05T09:50:34.090Z,57.23
2023-03-05T09:53:27.595Z,57.02
2023-03-05T09:56:10.449Z,56.86
2023-03-05T09:58:43.292Z,56.97
2023-03-05T10:01:11.926Z,56.64
2023-03-05T10:03:38.354Z,56.37
2023-03-05T10:06:24.125Z,55.79
2023-03-05T10:09:26.005Z,55.63
2023-03-05T10:12:23.544Z,55.40
2023-03-05T10:14:50.304Z,55.32
2023-03-05T10:17:55.250Z,54.73
2023-03-05T10:20:27.732Z,55.22
2023-03-05T10:23:30.314Z,54.99
2023-03-05T10:26:27.631Z,54.27
2023-03-05T10:29:05.473Z,54.54
2023-03-05T10:31:46.119Z,54.28
2023-03-05T10:34:39.847Z,54.40
2023-03-05T10:37:25.057Z,54.26
2023-03-05T10:40:05.966Z,54.41
2023-03-05T10:42:58.499Z,54.50
2023-03-05T10:45:33.226Z,54.58
2023-03-05T10:48:28.908Z,54.70
2023-03-05T10:51:19.328Z,53.68
2023-03-05T10:53:52.307Z,53.64
2023-03-05T10:56:22.492Z,53.92
2023-03-05T10:58:49.038Z,53.93
2023-03-05T11:01:22.043Z,54.23
2023-03-05T11:04:04.768Z,54.03
2023-03-05T11:06:38.261Z,54.16
2023-03-05T11:09:32.215Z,53.86
2023-03-05T11:12:01.686Z,54.29
2023-03-05T11:14:31.305Z,54.60
2023-03-05T11:16:57.862Z,54.22
2023-03-05T11:19:30.232Z,54.22
2023-03-05T11:22:18.989Z,54.34
2023-03-05T11:25:05.309Z,54.48
2023-03-05T11:27:37.148Z,54.52
2023-03-05T11:30:18.071Z,54.13
2023-03-05T11:32:44.542Z,54.50
2023-03-05T11:35:32.938Z,53.74
2023-03-05T11:38:02.040Z,53.68
2023-03-05T11:40:31.284Z,53.36
2023-03-05T11:43:02.950Z,53.67
2023-03-05T11:45:31.737Z,53.21
2023-03-05T11:48:25.745Z,53.40
2023-03-05T11:50:57.654Z,54.20
2023-03-05T11:53:31.288Z,54.04
2023-03-05T11:56:12.690Z,53.63
2023-03-05T11:58:41.311Z,68.43
2023-03-05T12:01:15.935Z,67.26
2023-03-05T12:03:43.718Z,59.51
2023-03-05T12:06:19.657Z,52.42
2023-03-05T12:08:51.398Z,51.43
2023-03-05T12:11:26.354Z,51.41
2023-03-05T12:13:57.654Z,52.40
2023-03-05T12:16:34.481Z,53.05
2023-03-05T12:19:07.290Z,52.47
2023-03-05T12:21:39.382Z,52.98
2023-03-05T12:24:27.323Z,53.58
2023-03-05T12:27:03.583Z,53.17
2023-03-05T12:29:33.340Z,52.47
2023-03-05T12:32:01.508Z,52.02
2023-03-05T12:34:40.576Z,52.09
2023-03-05T12:37:34.078Z,53.01
2023-03-05T12:40:04.580Z,53.00
2023-03-05T12:42:31.367Z,52.94
2023-03-05T12:45:10.093Z,53.24
2023-03-05T12:47:40.754Z,53.01
2023-03-05T12:50:29.197Z,53.51
2023-03-05T12:53:08.927Z,53.27
2023-03-05T12:55:46.297Z,53.59
2023-03-05T12:58:18.612Z,54.36
2023-03-05T13:00:52.320Z,54.66
2023-03-05T13:03:31.213Z,53.70
2023-03-05T13:06:00.419Z,54.16
2023-03-05T13:08:32.147Z,54.66
2023-03-05T13:11:16.663Z,54.37
2023-03-05T13:13:45.018Z,54.71
2023-03-05T13:16:27.154Z,55.54
2023-03-05T13:18:54.838Z,55.46
2023-03-05T13:21:26.766Z,55.66
2023-03-05T13:23:58.392Z,55.79
2023-03-05T13:26:30.384Z,56.15
2023-03-05T13:29:08.098Z,56.02
2023-03-05T13:31:46.761Z,56.60
2023-03-05T13:34:37.441Z,56.64
2023-03-05T13:37:20.368Z,56.32
2023-03-05T13:40:15.011Z,56.20
2023-03-05T13:42:41.519Z,56.44
2023-03-05T13:45:28.382Z,57.32
2023-03-05T13:48:00.873Z,56.73
2023-03-05T13:50:41.273Z,56.97
2023-03-05T13:53:24.367Z,56.99
2023-03-05T13:55:54.142Z,57.92
2023-03-05T13:58:52.451Z,56.58
2023-03-05T14:01:22.172Z,56.11
2023-03-05T14:03:51.292Z,56.15
2023-03-05T14:06:21.896Z,55.73
2023-03-05T14:08:54.981Z,56.35
2023-03-05T14:11:21.544Z,55.93
2023-03-05T14:13:49.102Z,55.50
2023-03-05T14:16:26.389Z,55.59
2023-03-05T14:18:58.027Z,55.71
2023-03-05T14:21:25.060Z,55.40
2023-03-05T14:23:55.295Z,55.87
2023-03-05T14:26:34.046Z,56.17
2023-03-05T14:29:07.252Z,56.25
2023-03-05T14:31:47.925Z,56.13
2023-03-05T14:34:31.861Z,56.15
2023-03-05T14:37:03.271Z,56.32
2023-03-05T14:39:46.404Z,56.41
2023-03-05T14:42:25.912Z,56.45
2023-03-05T14:44:53.181Z,56.60
2023-03-05T14:47:19.570Z,56.46
2023-03-05T14:49:46.573Z,57.07
2023-03-05T14:52:18.492Z,56.94
2023-03-05T14:54:45.519Z,56.78
2023-03-05T14:57:18.492Z,57.24
2023-03-05T14:59:45.197Z,57.40
2023-03-05T15:02:20.882Z,56.95
2023-03-05T15:04:47.737Z,56.52
2023-03-05T15:07:30.819Z,56.56
2023-03-05T15:09:59.560Z,56.53
2023-03-05T15:12:26.688Z,56.88
2023-03-05T15:14:55.280Z,56.34
2023-03-05T15:17:29.854Z,56.42
2023-03-05T15:19:56.347Z,56.77
2023-03-05T15:22:22.824Z,56.74
2023-03-05T15:24:49.281Z,56.28
2023-03-05T15:27:15.714Z,56.12
2023-03-05T15:29:42.673Z,56.09
2023-03-05T15:32:09.687Z,56.05
2023-03-05T15:34:36.552Z,56.07
2023-03-05T15:37:03.844Z,55.95
2023-03-05T15:39:30.712Z,55.96
2023-03-05T15:41:57.673Z,55.92
2023-03-05T15:44:24.575Z,56.06
2023-03-05T15:46:51.015Z,55.79
2023-03-05T15:49:17.587Z,55.61
2023-03-05T15:51:44.327Z,55.40
2023-03-05T15:54:10.748Z,55.29
2023-03-05T15:56:37.771Z,55.24
2023-03-05T15:59:05.615Z,55.22
2023-03-05T16:01:32.073Z,54.75
2023-03-05T16:03:58.573Z,55.00
2023-03-05T16:06:25.331Z,54.64
2023-03-05T16:08:58.337Z,55.31
2023-03-05T16:11:26.984Z,55.38
2023-03-05T16:13:53.873Z,55.67
2023-03-05T16:16:21.609Z,54.82
2023-03-05T16:18:48.347Z,54.58
2023-03-05T16:21:14.923Z,54.86
2023-03-05T16:23:41.795Z,55.20
2023-03-05T16:26:10.493Z,54.97
2023-03-05T16:28:37.216Z,54.96
2023-03-05T16:31:03.828Z,54.90
2023-03-05T16:33:30.306Z,55.19
2023-03-05T16:36:22.339Z,54.66
2023-03-05T16:38:50.522Z,54.88
2023-03-05T16:41:17.257Z,55.09
2023-03-05T16:43:44.834Z,55.35
2023-03-05T16:46:12.745Z,55.48
2023-03-05T16:48:39.281Z,55.61
2023-03-05T16:51:06.861Z,56.23
2023-03-05T16:53:33.294Z,55.29
2023-03-05T16:56:03.963Z,55.74
2023-03-05T16:58:31.490Z,55.63
2023-03-05T17:00:58.026Z,55.61
2023-03-05T17:03:24.633Z,55.59
2023-03-05T17:05:51.113Z,55.67
2023-03-05T17:08:17.579Z,55.78
2023-03-05T17:10:44.035Z,55.94
2023-03-05T17:13:10.442Z,55.83
2023-03-05T17:15:37.381Z,55.80
2023-03-05T17:18:04.377Z,55.81
2023-03-05T17:20:30.954Z,55.63
2023-03-05T17:23:02.773Z,56.23
2023-03-05T17:25:29.366Z,55.99
2023-03-05T17:27:55.828Z,56.20
2023-03-05T17:30:22.319Z,55.88
2023-03-05T17:32:52.335Z,55.99
2023-03-05T17:35:21.747Z,55.92
2023-03-05T17:37:48.325Z,56.46
2023-03-05T17:40:16.360Z,56.54
2023-03-05T17:42:42.901Z,56.75
2023-03-05T17:45:09.825Z,56.71
2023-03-05T17:47:36.708Z,56.58
2023-03-05T17:50:04.299Z,57.23
2023-03-05T17:52:31.051Z,56.90
2023-03-05T17:54:58.446Z,57.28
2023-03-05T17:57:26.388Z,57.45
2023-03-05T17:59:52.845Z,57.68
2023-03-05T18:02:19.807Z,57.20
2023-03-05T18:04:47.863Z,56.98
2023-03-05T18:07:14.441Z,57.64
2023-03-05T18:09:41.396Z,57.11
2023-03-05T18:12:08.231Z,57.41
2023-03-05T18:14:34.816Z,57.90
2023-03-05T18:17:01.250Z,57.90
2023-03-05T18:19:27.687Z,57.77
2023-03-05T18:21:54.228Z,58.01
2023-03-05T18:24:20.627Z,57.70
2023-03-05T18:26:47.054Z,58.07
2023-03-05T18:29:13.468Z,58.14
2023-03-05T18:31:39.923Z,58.40
2023-03-05T18:34:06.355Z,58.45
2023-03-05T18:36:32.995Z,58.33
2023-03-05T18:38:59.400Z,58.37
2023-03-05T18:41:28.191Z,58.08
2023-03-05T18:43:54.840Z,57.78
2023-03-05T18:46:21.403Z,57.90
2023-03-05T18:48:48.360Z,57.84
2023-03-05T18:51:17.634Z,81.10
2023-03-05T18:53:44.595Z,76.30
2023-03-05T18:56:11.785Z,62.66
2023-03-05T18:58:39.449Z,51.68
2023-03-05T19:01:06.636Z,52.64
2023-03-05T19:03:33.316Z,53.76
2023-03-05T19:05:59.736Z,54.48
2023-03-05T19:08:26.443Z,55.26
2023-03-05T19:10:53.025Z,55.65
2023-03-05T19:13:35.247Z,56.41
2023-03-05T19:16:13.924Z,56.95
2023-03-05T19:18:53.832Z,57.04
2023-03-05T19:21:20.291Z,57.36
2023-03-05T19:23:46.652Z,57.18
2023-03-05T19:26:13.083Z,57.69
2023-03-05T19:28:40.013Z,57.92
2023-03-05T19:31:06.620Z,58.40
2023-03-05T19:33:33.071Z,58.93
2023-03-05T19:36:00.438Z,59.10
2023-03-05T19:38:26.844Z,59.63
2023-03-05T19:40:53.283Z,59.42
2023-03-05T19:43:20.380Z,59.74
2023-03-05T19:45:46.935Z,59.64
2023-03-05T19:48:15.421Z,59.97
2023-03-05T19:50:41.935Z,60.22
2023-03-05T19:53:08.412Z,60.25
2023-03-05T19:55:40.089Z,60.30
2023-03-05T19:58:06.557Z,60.47
2023-03-05T20:00:33.178Z,60.77
2023-03-05T20:02:59.582Z,60.55
2023-03-05T20:05:26.560Z,60.63
2023-03-05T20:07:53.598Z,60.76
2023-03-05T20:10:20.303Z,61.16
2023-03-05T20:12:48.424Z,61.00
2023-03-05T20:15:15.052Z,61.23
2023-03-05T20:17:45.559Z,61.53
2023-03-05T20:20:17.972Z,62.06
2023-03-05T20:22:47.243Z,62.05
2023-03-05T20:25:16.634Z,62.06
2023-03-05T20:27:43.771Z,61.82
2023-03-05T20:30:14.463Z,61.99
2023-03-05T20:32:41.202Z,62.15
2023-03-05T20:35:12.463Z,61.98
2023-03-05T20:37:49.430Z,61.80
2023-03-05T20:40:16.684Z,62.22
2023-03-05T20:42:43.404Z,62.09
2023-03-05T20:45:10.337Z,62.15
2023-03-05T20:47:45.834Z,62.25
2023-03-05T20:50:17.386Z,62.52
2023-03-05T20:52:43.993Z,62.21
2023-03-05T20:55:11.818Z,62.30
2023-03-05T20:57:39.115Z,62.37
2023-03-05T21:00:06.411Z,62.22
2023-03-05T21:02:33.012Z,62.83
2023-03-05T21:04:59.438Z,62.20
2023-03-05T21:07:28.029Z,62.69
2023-03-05T21:09:54.440Z,63.76
2023-03-05T21:12:21.442Z,63.63
2023-03-05T21:14:47.885Z,63.49
2023-03-05T21:17:14.365Z,63.42
2023-03-05T21:19:40.842Z,63.46
2023-03-05T21:22:07.317Z,63.85
2023-03-05T21:24:43.771Z,63.22
2023-03-05T21:27:10.593Z,62.81
2023-03-05T21:29:37.080Z,63.56
2023-03-05T21:32:03.750Z,63.39
2023-03-05T21:34:30.391Z,62.78
2023-03-05T21:36:56.866Z,62.58
2023-03-05T21:39:23.278Z,62.36
2023-03-05T21:41:49.977Z,62.77
2023-03-05T21:44:17.661Z,62.70
2023-03-05T21:46:44.253Z,62.95
2023-03-05T21:49:10.960Z,62.79
2023-03-05T21:51:48.804Z,62.58
2023-03-05T21:54:15.370Z,62.99
2023-03-05T21:56:41.765Z,63.37
2023-03-05T21:59:08.242Z,62.97
2023-03-05T22:01:35.401Z,62.57
2023-03-05T22:04:01.938Z,62.46
2023-03-05T22:06:28.386Z,62.06
2023-03-05T22:08:55.086Z,62.66
2023-03-05T22:11:22.344Z,62.73
2023-03-05T22:13:48.994Z,62.74
2023-03-05T22:16:26.719Z,62.40
2023-03-05T22:18:53.497Z,62.30
2023-03-05T22:21:22.666Z,62.31
2023-03-05T22:23:49.863Z,62.77
2023-03-05T22:26:16.339Z,62.72
2023-03-05T22:28:42.819Z,62.57
2023-03-05T22:31:10.219Z,63.19
2023-03-05T22:33:36.703Z,63.68
2023-03-05T22:36:10.553Z,63.86
2023-03-05T22:38:37.113Z,64.61
2023-03-05T22:41:08.594Z,64.48
2023-03-05T22:43:35.384Z,64.42
2023-03-05T22:46:12.834Z,64.15
2023-03-05T22:48:39.920Z,63.96
2023-03-05T22:51:06.465Z,63.99
2023-03-05T22:53:32.924Z,64.05
2023-03-05T22:55:59.666Z,64.47
2023-03-05T22:58:26.072Z,64.09
2023-03-05T23:00:52.508Z,64.52
2023-03-05T23:03:19.039Z,64.26
2023-03-05T23:05:45.458Z,64.03
2023-03-05T23:08:11.913Z,64.32
2023-03-05T23:10:38.447Z,63.99
2023-03-05T23:13:04.853Z,63.57
2023-03-05T23:15:34.653Z,64.04
2023-03-05T23:18:01.904Z,63.78
2023-03-05T23:20:30.999Z,63.55
2023-03-05T23:22:58.113Z,63.81
2023-03-05T23:25:28.305Z,64.06
2023-03-05T23:27:55.268Z,63.68
2023-03-05T23:30:29.540Z,63.61
2023-03-05T23:33:05.131Z,64.02
2023-03-05T23:35:39.987Z,64.23
2023-03-05T23:38:09.735Z,64.49
2023-03-05T23:40:39.937Z,63.90
2023-03-05T23:43:06.457Z,63.76
2023-03-05T23:45:33.239Z,63.86
2023-03-05T23:47:59.963Z,64.37
2023-03-05T23:50:29.450Z,64.10
2023-03-05T23:52:56.957Z,63.56
2023-03-05T23:55:30.219Z,63.73
2023-03-05T23:57:56.844Z,63.79
